sensor_id;sensor_type;location;lat;lon;timestamp;P1;durP1;ratioP1;P2;durP2;ratioP2
48423;SDS011;34232;42.502;26.014;2022-12-31T00:00:56;46.60;;;20.03;;
48423;SDS011;34232;42.502;26.014;2022-12-31T00:03:21;44.37;;;18.20;;
48423;SDS011;34232;42.502;26.014;2022-12-31T00:05:47;45.10;;;18.20;;
48423;SDS011;34232;42.502;26.014;2022-12-31T00:08:12;38.07;;;18.90;;
48423;SDS011;34232;42.502;26.014;2022-12-31T00:10:37;44.30;;;20.40;;
48423;SDS011;34232;42.502;26.014;2022-12-31T00:13:06;41.73;;;21.00;;
48423;SDS011;34232;42.502;26.014;2022-12-31T00:15:33;48.03;;;19.77;;
48423;SDS011;34232;42.502;26.014;2022-12-31T00:17:58;40.93;;;20.23;;
48423;SDS011;34232;42.502;26.014;2022-12-31T00:20:24;41.93;;;17.47;;
48423;SDS011;34232;42.502;26.014;2022-12-31T00:22:49;42.40;;;20.10;;
48423;SDS011;34232;42.502;26.014;2022-12-31T00:25:15;40.90;;;19.37;;
48423;SDS011;34232;42.502;26.014;2022-12-31T00:27:40;32.93;;;18.27;;
48423;SDS011;34232;42.502;26.014;2022-12-31T00:30:06;48.57;;;20.43;;
48423;SDS011;34232;42.502;26.014;2022-12-31T00:32:32;44.57;;;20.90;;
48423;SDS011;34232;42.502;26.014;2022-12-31T00:34:57;46.27;;;20.97;;
48423;SDS011;34232;42.502;26.014;2022-12-31T00:37:22;47.23;;;20.37;;
48423;SDS011;34232;42.502;26.014;2022-12-31T00:39:48;40.37;;;19.93;;
48423;SDS011;34232;42.502;26.014;2022-12-31T00:42:13;37.50;;;17.57;;
48423;SDS011;34232;42.502;26.014;2022-12-31T00:44:38;34.93;;;16.23;;
48423;SDS011;34232;42.502;26.014;2022-12-31T00:47:04;37.87;;;17.30;;
48423;SDS011;34232;42.502;26.014;2022-12-31T00:49:29;35.00;;;17.63;;
48423;SDS011;34232;42.502;26.014;2022-12-31T00:51:55;41.10;;;17.73;;
48423;SDS011;34232;42.502;26.014;2022-12-31T00:54:20;35.03;;;16.27;;
48423;SDS011;34232;42.502;26.014;2022-12-31T00:56:45;30.77;;;14.97;;
48423;SDS011;34232;42.502;26.014;2022-12-31T00:59:11;33.83;;;15.97;;
48423;SDS011;34232;42.502;26.014;2022-12-31T01:01:37;32.23;;;15.00;;
48423;SDS011;34232;42.502;26.014;2022-12-31T01:04:08;29.50;;;13.93;;
48423;SDS011;34232;42.502;26.014;2022-12-31T01:06:35;27.40;;;12.60;;
48423;SDS011;34232;42.502;26.014;2022-12-31T01:09:04;30.77;;;15.33;;
48423;SDS011;34232;42.502;26.014;2022-12-31T01:11:30;27.35;;;12.75;;
48423;SDS011;34232;42.502;26.014;2022-12-31T01:13:57;30.67;;;14.40;;
48423;SDS011;34232;42.502;26.014;2022-12-31T01:18:53;33.30;;;15.07;;
48423;SDS011;34232;42.502;26.014;2022-12-31T01:21:19;32.07;;;15.10;;
48423;SDS011;34232;42.502;26.014;2022-12-31T01:23:46;32.50;;;14.38;;
48423;SDS011;34232;42.502;26.014;2022-12-31T01:26:12;31.70;;;15.17;;
48423;SDS011;34232;42.502;26.014;2022-12-31T01:28:39;31.13;;;16.07;;
48423;SDS011;34232;42.502;26.014;2022-12-31T01:31:06;27.97;;;13.70;;
48423;SDS011;34232;42.502;26.014;2022-12-31T01:33:32;29.50;;;14.60;;
48423;SDS011;34232;42.502;26.014;2022-12-31T01:36:05;26.63;;;13.07;;
48423;SDS011;34232;42.502;26.014;2022-12-31T01:38:33;26.33;;;12.53;;
48423;SDS011;34232;42.502;26.014;2022-12-31T01:40:59;24.20;;;12.38;;
48423;SDS011;34232;42.502;26.014;2022-12-31T01:51:44;27.90;;;12.30;;
48423;SDS011;34232;42.502;26.014;2022-12-31T01:54:20;24.97;;;12.97;;
48423;SDS011;34232;42.502;26.014;2022-12-31T01:56:48;42.27;;;17.80;;
48423;SDS011;34232;42.502;26.014;2022-12-31T01:59:16;32.80;;;15.47;;
48423;SDS011;34232;42.502;26.014;2022-12-31T02:01:44;22.63;;;12.57;;
48423;SDS011;34232;42.502;26.014;2022-12-31T02:04:12;28.87;;;14.20;;
48423;SDS011;34232;42.502;26.014;2022-12-31T02:06:42;24.13;;;11.20;;
48423;SDS011;34232;42.502;26.014;2022-12-31T02:09:12;20.00;;;11.20;;
48423;SDS011;34232;42.502;26.014;2022-12-31T02:11:37;24.77;;;11.90;;
48423;SDS011;34232;42.502;26.014;2022-12-31T02:14:14;19.37;;;10.73;;
48423;SDS011;34232;42.502;26.014;2022-12-31T02:16:52;25.17;;;11.17;;
48423;SDS011;34232;42.502;26.014;2022-12-31T02:25:02;18.27;;;11.33;;
48423;SDS011;34232;42.502;26.014;2022-12-31T02:32:53;21.13;;;10.80;;
48423;SDS011;34232;42.502;26.014;2022-12-31T02:35:33;25.17;;;11.37;;
48423;SDS011;34232;42.502;26.014;2022-12-31T02:38:08;20.33;;;10.00;;
48423;SDS011;34232;42.502;26.014;2022-12-31T02:40:39;25.33;;;12.43;;
48423;SDS011;34232;42.502;26.014;2022-12-31T02:43:04;23.33;;;12.17;;
48423;SDS011;34232;42.502;26.014;2022-12-31T02:45:37;24.40;;;13.00;;
48423;SDS011;34232;42.502;26.014;2022-12-31T02:56:34;22.70;;;10.97;;
48423;SDS011;34232;42.502;26.014;2022-12-31T02:59:22;22.83;;;11.63;;
48423;SDS011;34232;42.502;26.014;2022-12-31T03:02:15;23.83;;;11.30;;
48423;SDS011;34232;42.502;26.014;2022-12-31T03:04:51;30.20;;;13.83;;
48423;SDS011;34232;42.502;26.014;2022-12-31T03:07:19;28.10;;;11.20;;
48423;SDS011;34232;42.502;26.014;2022-12-31T03:09:47;17.97;;;10.30;;
48423;SDS011;34232;42.502;26.014;2022-12-31T03:12:13;30.00;;;13.13;;
48423;SDS011;34232;42.502;26.014;2022-12-31T03:14:58;26.87;;;12.53;;
48423;SDS011;34232;42.502;26.014;2022-12-31T03:17:23;34.20;;;13.90;;
48423;SDS011;34232;42.502;26.014;2022-12-31T03:19:48;22.80;;;11.17;;
48423;SDS011;34232;42.502;26.014;2022-12-31T03:22:35;30.53;;;11.57;;
48423;SDS011;34232;42.502;26.014;2022-12-31T03:25:05;20.07;;;11.07;;
48423;SDS011;34232;42.502;26.014;2022-12-31T03:27:50;19.17;;;9.40;;
48423;SDS011;34232;42.502;26.014;2022-12-31T03:30:16;18.67;;;11.03;;
48423;SDS011;34232;42.502;26.014;2022-12-31T03:32:43;19.77;;;10.00;;
48423;SDS011;34232;42.502;26.014;2022-12-31T03:35:10;31.15;;;14.77;;
48423;SDS011;34232;42.502;26.014;2022-12-31T03:37:37;29.50;;;13.03;;
48423;SDS011;34232;42.502;26.014;2022-12-31T03:40:05;23.65;;;12.13;;
48423;SDS011;34232;42.502;26.014;2022-12-31T03:42:31;28.50;;;14.30;;
48423;SDS011;34232;42.502;26.014;2022-12-31T03:44:57;19.53;;;11.80;;
48423;SDS011;34232;42.502;26.014;2022-12-31T03:47:22;21.90;;;12.30;;
48423;SDS011;34232;42.502;26.014;2022-12-31T03:49:47;17.27;;;9.77;;
48423;SDS011;34232;42.502;26.014;2022-12-31T03:52:13;23.40;;;11.83;;
48423;SDS011;34232;42.502;26.014;2022-12-31T03:54:38;24.03;;;13.47;;
48423;SDS011;34232;42.502;26.014;2022-12-31T03:57:04;23.80;;;12.13;;
48423;SDS011;34232;42.502;26.014;2022-12-31T03:59:29;23.73;;;11.13;;
48423;SDS011;34232;42.502;26.014;2022-12-31T04:01:54;23.23;;;12.00;;
48423;SDS011;34232;42.502;26.014;2022-12-31T04:04:20;19.63;;;10.40;;
48423;SDS011;34232;42.502;26.014;2022-12-31T04:06:45;20.53;;;11.03;;
48423;SDS011;34232;42.502;26.014;2022-12-31T04:09:11;26.47;;;12.40;;
48423;SDS011;34232;42.502;26.014;2022-12-31T04:11:36;21.63;;;11.83;;
48423;SDS011;34232;42.502;26.014;2022-12-31T04:14:01;19.03;;;11.17;;
48423;SDS011;34232;42.502;26.014;2022-12-31T04:16:27;16.77;;;10.70;;
48423;SDS011;34232;42.502;26.014;2022-12-31T04:18:52;20.07;;;10.57;;
48423;SDS011;34232;42.502;26.014;2022-12-31T04:21:18;17.83;;;10.40;;
48423;SDS011;34232;42.502;26.014;2022-12-31T04:23:43;16.33;;;10.43;;
48423;SDS011;34232;42.502;26.014;2022-12-31T04:26:08;20.03;;;9.90;;
48423;SDS011;34232;42.502;26.014;2022-12-31T04:28:34;20.43;;;11.50;;
48423;SDS011;34232;42.502;26.014;2022-12-31T04:30:59;18.77;;;10.50;;
48423;SDS011;34232;42.502;26.014;2022-12-31T04:33:25;19.10;;;10.70;;
48423;SDS011;34232;42.502;26.014;2022-12-31T04:35:50;19.17;;;10.57;;
48423;SDS011;34232;42.502;26.014;2022-12-31T04:38:15;22.60;;;11.53;;
48423;SDS011;34232;42.502;26.014;2022-12-31T04:40:41;19.90;;;11.27;;
48423;SDS011;34232;42.502;26.014;2022-12-31T04:43:27;28.17;;;13.20;;
48423;SDS011;34232;42.502;26.014;2022-12-31T04:45:52;30.93;;;14.00;;
48423;SDS011;34232;42.502;26.014;2022-12-31T04:48:18;23.87;;;12.37;;
48423;SDS011;34232;42.502;26.014;2022-12-31T04:50:45;26.37;;;13.73;;
48423;SDS011;34232;42.502;26.014;2022-12-31T04:53:10;24.43;;;13.73;;
48423;SDS011;34232;42.502;26.014;2022-12-31T04:55:36;22.83;;;11.77;;
48423;SDS011;34232;42.502;26.014;2022-12-31T04:58:01;23.97;;;11.80;;
48423;SDS011;34232;42.502;26.014;2022-12-31T05:00:27;21.27;;;12.13;;
48423;SDS011;34232;42.502;26.014;2022-12-31T05:02:52;22.27;;;12.10;;
48423;SDS011;34232;42.502;26.014;2022-12-31T05:05:17;23.20;;;12.37;;
48423;SDS011;34232;42.502;26.014;2022-12-31T05:07:43;22.27;;;11.77;;
48423;SDS011;34232;42.502;26.014;2022-12-31T05:10:08;28.50;;;14.17;;
48423;SDS011;34232;42.502;26.014;2022-12-31T05:12:33;29.37;;;15.50;;
48423;SDS011;34232;42.502;26.014;2022-12-31T05:14:59;26.00;;;13.57;;
48423;SDS011;34232;42.502;26.014;2022-12-31T05:17:24;35.67;;;16.57;;
48423;SDS011;34232;42.502;26.014;2022-12-31T05:19:50;28.10;;;14.93;;
48423;SDS011;34232;42.502;26.014;2022-12-31T05:22:15;35.40;;;19.30;;
48423;SDS011;34232;42.502;26.014;2022-12-31T05:24:58;35.23;;;17.97;;
48423;SDS011;34232;42.502;26.014;2022-12-31T05:27:24;35.80;;;17.47;;
48423;SDS011;34232;42.502;26.014;2022-12-31T05:29:51;33.05;;;18.13;;
48423;SDS011;34232;42.502;26.014;2022-12-31T05:32:16;43.50;;;19.17;;
48423;SDS011;34232;42.502;26.014;2022-12-31T05:34:42;35.43;;;18.43;;
48423;SDS011;34232;42.502;26.014;2022-12-31T05:37:07;36.40;;;18.23;;
48423;SDS011;34232;42.502;26.014;2022-12-31T05:39:33;33.47;;;17.47;;
48423;SDS011;34232;42.502;26.014;2022-12-31T05:41:58;34.87;;;17.90;;
48423;SDS011;34232;42.502;26.014;2022-12-31T05:44:24;25.77;;;15.13;;
48423;SDS011;34232;42.502;26.014;2022-12-31T05:46:49;61.93;;;30.73;;
48423;SDS011;34232;42.502;26.014;2022-12-31T05:49:14;63.20;;;30.60;;
48423;SDS011;34232;42.502;26.014;2022-12-31T05:51:40;21.30;;;10.53;;
48423;SDS011;34232;42.502;26.014;2022-12-31T05:54:05;19.03;;;9.20;;
48423;SDS011;34232;42.502;26.014;2022-12-31T05:56:31;16.57;;;9.17;;
48423;SDS011;34232;42.502;26.014;2022-12-31T05:58:56;21.67;;;10.50;;
48423;SDS011;34232;42.502;26.014;2022-12-31T06:01:21;20.63;;;12.10;;
48423;SDS011;34232;42.502;26.014;2022-12-31T06:03:47;44.57;;;21.00;;
48423;SDS011;34232;42.502;26.014;2022-12-31T06:06:12;45.07;;;21.37;;
48423;SDS011;34232;42.502;26.014;2022-12-31T06:08:38;36.87;;;17.63;;
48423;SDS011;34232;42.502;26.014;2022-12-31T06:11:03;25.53;;;13.33;;
48423;SDS011;34232;42.502;26.014;2022-12-31T06:13:29;23.17;;;12.80;;
48423;SDS011;34232;42.502;26.014;2022-12-31T06:15:54;28.87;;;14.30;;
48423;SDS011;34232;42.502;26.014;2022-12-31T06:18:19;25.90;;;13.63;;
48423;SDS011;34232;42.502;26.014;2022-12-31T06:20:45;27.80;;;12.80;;
48423;SDS011;34232;42.502;26.014;2022-12-31T06:23:10;32.47;;;14.77;;
48423;SDS011;34232;42.502;26.014;2022-12-31T06:25:36;28.53;;;15.83;;
48423;SDS011;34232;42.502;26.014;2022-12-31T06:28:02;22.73;;;13.47;;
48423;SDS011;34232;42.502;26.014;2022-12-31T06:30:28;28.05;;;13.88;;
48423;SDS011;34232;42.502;26.014;2022-12-31T06:32:54;22.97;;;11.83;;
48423;SDS011;34232;42.502;26.014;2022-12-31T06:35:19;24.10;;;12.57;;
48423;SDS011;34232;42.502;26.014;2022-12-31T06:37:45;23.53;;;14.20;;
48423;SDS011;34232;42.502;26.014;2022-12-31T06:40:10;21.60;;;12.87;;
48423;SDS011;34232;42.502;26.014;2022-12-31T06:42:37;29.23;;;14.50;;
48423;SDS011;34232;42.502;26.014;2022-12-31T06:45:02;26.83;;;14.27;;
48423;SDS011;34232;42.502;26.014;2022-12-31T06:47:28;22.97;;;12.37;;
48423;SDS011;34232;42.502;26.014;2022-12-31T06:49:53;26.80;;;12.63;;
48423;SDS011;34232;42.502;26.014;2022-12-31T06:52:19;24.50;;;12.67;;
48423;SDS011;34232;42.502;26.014;2022-12-31T06:54:45;23.20;;;11.33;;
48423;SDS011;34232;42.502;26.014;2022-12-31T06:57:11;24.87;;;13.03;;
48423;SDS011;34232;42.502;26.014;2022-12-31T06:59:37;28.17;;;13.93;;
48423;SDS011;34232;42.502;26.014;2022-12-31T07:07:25;35.00;;;16.43;;
48423;SDS011;34232;42.502;26.014;2022-12-31T07:18:14;41.30;;;18.40;;
48423;SDS011;34232;42.502;26.014;2022-12-31T07:20:45;36.30;;;20.60;;
48423;SDS011;34232;42.502;26.014;2022-12-31T07:23:10;36.23;;;19.70;;
48423;SDS011;34232;42.502;26.014;2022-12-31T07:25:36;34.07;;;18.20;;
48423;SDS011;34232;42.502;26.014;2022-12-31T07:28:20;41.50;;;21.37;;
48423;SDS011;34232;42.502;26.014;2022-12-31T07:31:22;44.38;;;23.17;;
48423;SDS011;34232;42.502;26.014;2022-12-31T07:33:47;53.50;;;26.40;;
48423;SDS011;34232;42.502;26.014;2022-12-31T07:36:25;58.70;;;31.87;;
48423;SDS011;34232;42.502;26.014;2022-12-31T07:42:22;50.77;;;25.60;;
48423;SDS011;34232;42.502;26.014;2022-12-31T07:47:22;30.77;;;17.27;;
48423;SDS011;34232;42.502;26.014;2022-12-31T07:49:49;25.33;;;15.63;;
48423;SDS011;34232;42.502;26.014;2022-12-31T07:52:15;32.77;;;15.93;;
48423;SDS011;34232;42.502;26.014;2022-12-31T07:54:42;34.95;;;19.83;;
48423;SDS011;34232;42.502;26.014;2022-12-31T07:57:08;31.88;;;18.45;;
48423;SDS011;34232;42.502;26.014;2022-12-31T08:10:23;53.63;;;27.80;;
48423;SDS011;34232;42.502;26.014;2022-12-31T08:12:51;53.97;;;32.17;;
48423;SDS011;34232;42.502;26.014;2022-12-31T08:15:32;57.40;;;30.63;;
48423;SDS011;34232;42.502;26.014;2022-12-31T08:17:58;51.67;;;28.17;;
48423;SDS011;34232;42.502;26.014;2022-12-31T08:20:24;48.67;;;25.07;;
48423;SDS011;34232;42.502;26.014;2022-12-31T08:25:46;52.47;;;25.60;;
48423;SDS011;34232;42.502;26.014;2022-12-31T08:28:26;45.50;;;24.43;;
48423;SDS011;34232;42.502;26.014;2022-12-31T08:31:18;51.50;;;25.53;;
48423;SDS011;34232;42.502;26.014;2022-12-31T08:41:50;57.90;;;26.40;;
48423;SDS011;34232;42.502;26.014;2022-12-31T08:49:46;74.80;;;31.60;;
48423;SDS011;34232;42.502;26.014;2022-12-31T08:52:14;80.70;;;31.30;;
48423;SDS011;34232;42.502;26.014;2022-12-31T08:54:42;80.73;;;33.00;;
48423;SDS011;34232;42.502;26.014;2022-12-31T09:00:06;67.40;;;29.00;;
48423;SDS011;34232;42.502;26.014;2022-12-31T09:02:39;77.20;;;30.45;;
48423;SDS011;34232;42.502;26.014;2022-12-31T09:05:31;83.57;;;35.17;;
48423;SDS011;34232;42.502;26.014;2022-12-31T09:10:59;85.67;;;33.90;;
48423;SDS011;34232;42.502;26.014;2022-12-31T09:19:24;87.53;;;35.30;;
48423;SDS011;34232;42.502;26.014;2022-12-31T09:21:50;79.43;;;31.20;;
48423;SDS011;34232;42.502;26.014;2022-12-31T09:24:15;86.00;;;32.77;;
48423;SDS011;34232;42.502;26.014;2022-12-31T09:29:58;83.37;;;29.77;;
48423;SDS011;34232;42.502;26.014;2022-12-31T09:35:08;67.27;;;28.43;;
48423;SDS011;34232;42.502;26.014;2022-12-31T09:48:31;72.77;;;29.83;;
48423;SDS011;34232;42.502;26.014;2022-12-31T10:00:02;75.93;;;31.00;;
48423;SDS011;34232;42.502;26.014;2022-12-31T10:18:43;50.07;;;21.63;;
48423;SDS011;34232;42.502;26.014;2022-12-31T10:24:08;53.73;;;24.53;;
48423;SDS011;34232;42.502;26.014;2022-12-31T10:34:29;68.53;;;31.77;;
48423;SDS011;34232;42.502;26.014;2022-12-31T10:45:29;83.87;;;32.90;;
48423;SDS011;34232;42.502;26.014;2022-12-31T11:13:49;63.90;;;26.47;;
48423;SDS011;34232;42.502;26.014;2022-12-31T11:19:12;55.40;;;23.85;;
48423;SDS011;34232;42.502;26.014;2022-12-31T11:27:01;59.88;;;28.83;;
48423;SDS011;34232;42.502;26.014;2022-12-31T11:32:46;66.80;;;33.28;;
48423;SDS011;34232;42.502;26.014;2022-12-31T11:37:47;64.65;;;30.90;;
48423;SDS011;34232;42.502;26.014;2022-12-31T11:43:10;71.07;;;31.50;;
48423;SDS011;34232;42.502;26.014;2022-12-31T11:56:25;63.80;;;30.67;;
48423;SDS011;34232;42.502;26.014;2022-12-31T11:58:56;64.88;;;30.27;;
48423;SDS011;34232;42.502;26.014;2022-12-31T12:01:23;63.83;;;31.48;;
48423;SDS011;34232;42.502;26.014;2022-12-31T12:03:54;62.08;;;29.15;;
48423;SDS011;34232;42.502;26.014;2022-12-31T12:06:28;58.87;;;29.90;;
48423;SDS011;34232;42.502;26.014;2022-12-31T12:08:58;55.78;;;28.55;;
48423;SDS011;34232;42.502;26.014;2022-12-31T12:11:27;60.85;;;30.50;;
48423;SDS011;34232;42.502;26.014;2022-12-31T12:13:56;58.13;;;30.13;;
48423;SDS011;34232;42.502;26.014;2022-12-31T12:16:21;61.37;;;30.30;;
48423;SDS011;34232;42.502;26.014;2022-12-31T12:18:49;62.60;;;32.25;;
48423;SDS011;34232;42.502;26.014;2022-12-31T12:21:26;57.75;;;28.38;;
48423;SDS011;34232;42.502;26.014;2022-12-31T12:23:57;57.67;;;29.50;;
48423;SDS011;34232;42.502;26.014;2022-12-31T12:31:56;55.78;;;28.40;;
48423;SDS011;34232;42.502;26.014;2022-12-31T12:34:31;51.70;;;27.15;;
48423;SDS011;34232;42.502;26.014;2022-12-31T12:37:04;56.75;;;26.10;;
48423;SDS011;34232;42.502;26.014;2022-12-31T12:39:53;54.72;;;26.83;;
48423;SDS011;34232;42.502;26.014;2022-12-31T12:42:29;56.15;;;25.77;;
48423;SDS011;34232;42.502;26.014;2022-12-31T12:45:05;51.90;;;26.67;;
48423;SDS011;34232;42.502;26.014;2022-12-31T12:47:39;55.33;;;27.33;;
48423;SDS011;34232;42.502;26.014;2022-12-31T12:50:09;52.63;;;26.58;;
48423;SDS011;34232;42.502;26.014;2022-12-31T13:05:56;53.80;;;28.65;;
48423;SDS011;34232;42.502;26.014;2022-12-31T13:09:07;51.65;;;26.25;;
48423;SDS011;34232;42.502;26.014;2022-12-31T13:14:58;60.20;;;28.95;;
48423;SDS011;34232;42.502;26.014;2022-12-31T13:28:21;59.67;;;30.67;;
48423;SDS011;34232;42.502;26.014;2022-12-31T13:30:50;66.93;;;32.33;;
48423;SDS011;34232;42.502;26.014;2022-12-31T13:33:23;68.60;;;36.15;;
48423;SDS011;34232;42.502;26.014;2022-12-31T13:38:26;68.55;;;33.95;;
48423;SDS011;34232;42.502;26.014;2022-12-31T13:46:18;63.87;;;34.40;;
48423;SDS011;34232;42.502;26.014;2022-12-31T13:51:49;61.55;;;32.30;;
48423;SDS011;34232;42.502;26.014;2022-12-31T13:56:50;65.85;;;33.60;;
48423;SDS011;34232;42.502;26.014;2022-12-31T13:59:21;60.08;;;32.67;;
48423;SDS011;34232;42.502;26.014;2022-12-31T14:07:37;60.22;;;31.45;;
48423;SDS011;34232;42.502;26.014;2022-12-31T14:10:11;60.60;;;32.67;;
48423;SDS011;34232;42.502;26.014;2022-12-31T14:15:30;70.95;;;31.73;;
48423;SDS011;34232;42.502;26.014;2022-12-31T14:25:39;66.70;;;36.65;;
48423;SDS011;34232;42.502;26.014;2022-12-31T14:28:16;67.97;;;34.20;;
48423;SDS011;34232;42.502;26.014;2022-12-31T14:30:49;72.15;;;37.13;;
48423;SDS011;34232;42.502;26.014;2022-12-31T14:38:25;67.63;;;36.17;;
48423;SDS011;34232;42.502;26.014;2022-12-31T14:51:53;67.50;;;35.05;;
48423;SDS011;34232;42.502;26.014;2022-12-31T14:54:23;74.33;;;37.87;;
48423;SDS011;34232;42.502;26.014;2022-12-31T14:56:51;78.05;;;37.63;;
48423;SDS011;34232;42.502;26.014;2022-12-31T14:59:25;80.10;;;41.17;;
48423;SDS011;34232;42.502;26.014;2022-12-31T15:01:52;77.40;;;37.63;;
48423;SDS011;34232;42.502;26.014;2022-12-31T15:07:17;65.32;;;35.20;;
48423;SDS011;34232;42.502;26.014;2022-12-31T15:09:58;75.35;;;34.25;;
48423;SDS011;34232;42.502;26.014;2022-12-31T15:23:22;79.90;;;36.53;;
48423;SDS011;34232;42.502;26.014;2022-12-31T15:25:53;107.97;;;50.67;;
48423;SDS011;34232;42.502;26.014;2022-12-31T15:28:35;97.72;;;46.85;;
48423;SDS011;34232;42.502;26.014;2022-12-31T15:31:12;69.18;;;36.83;;
48423;SDS011;34232;42.502;26.014;2022-12-31T15:33:57;61.63;;;31.65;;
48423;SDS011;34232;42.502;26.014;2022-12-31T15:36:24;65.47;;;30.02;;
48423;SDS011;34232;42.502;26.014;2022-12-31T15:39:02;64.43;;;32.05;;
48423;SDS011;34232;42.502;26.014;2022-12-31T15:41:42;60.97;;;31.13;;
48423;SDS011;34232;42.502;26.014;2022-12-31T15:49:26;66.70;;;32.03;;
48423;SDS011;34232;42.502;26.014;2022-12-31T15:52:00;60.58;;;30.13;;
48423;SDS011;34232;42.502;26.014;2022-12-31T15:54:41;62.83;;;29.65;;
48423;SDS011;34232;42.502;26.014;2022-12-31T15:57:11;60.90;;;30.20;;
48423;SDS011;34232;42.502;26.014;2022-12-31T15:59:44;46.50;;;24.33;;
48423;SDS011;34232;42.502;26.014;2022-12-31T16:02:20;41.73;;;22.47;;
48423;SDS011;34232;42.502;26.014;2022-12-31T16:07:14;43.77;;;21.30;;
48423;SDS011;34232;42.502;26.014;2022-12-31T16:09:40;57.20;;;27.60;;
48423;SDS011;34232;42.502;26.014;2022-12-31T16:12:09;62.65;;;29.83;;
48423;SDS011;34232;42.502;26.014;2022-12-31T16:14:44;73.30;;;32.65;;
48423;SDS011;34232;42.502;26.014;2022-12-31T16:17:29;84.88;;;38.13;;
48423;SDS011;34232;42.502;26.014;2022-12-31T16:19:56;82.83;;;36.93;;
48423;SDS011;34232;42.502;26.014;2022-12-31T16:25:00;34.47;;;17.33;;
48423;SDS011;34232;42.502;26.014;2022-12-31T16:27:27;39.88;;;18.40;;
48423;SDS011;34232;42.502;26.014;2022-12-31T16:32:23;29.10;;;15.73;;
48423;SDS011;34232;42.502;26.014;2022-12-31T16:34:49;35.77;;;17.40;;
48423;SDS011;34232;42.502;26.014;2022-12-31T16:37:18;32.60;;;17.35;;
48423;SDS011;34232;42.502;26.014;2022-12-31T16:42:20;36.60;;;16.97;;
48423;SDS011;34232;42.502;26.014;2022-12-31T16:44:47;32.63;;;17.00;;
48423;SDS011;34232;42.502;26.014;2022-12-31T16:47:15;34.92;;;17.00;;
48423;SDS011;34232;42.502;26.014;2022-12-31T16:49:47;40.17;;;17.43;;
48423;SDS011;34232;42.502;26.014;2022-12-31T16:52:31;35.80;;;17.93;;
48423;SDS011;34232;42.502;26.014;2022-12-31T16:55:01;41.93;;;17.73;;
48423;SDS011;34232;42.502;26.014;2022-12-31T16:57:32;36.23;;;16.53;;
48423;SDS011;34232;42.502;26.014;2022-12-31T17:00:02;36.00;;;18.47;;
48423;SDS011;34232;42.502;26.014;2022-12-31T17:02:33;38.77;;;16.77;;
48423;SDS011;34232;42.502;26.014;2022-12-31T17:05:16;39.40;;;18.47;;
48423;SDS011;34232;42.502;26.014;2022-12-31T17:07:46;34.43;;;17.83;;
48423;SDS011;34232;42.502;26.014;2022-12-31T17:10:14;45.93;;;22.10;;
48423;SDS011;34232;42.502;26.014;2022-12-31T17:12:52;43.77;;;21.00;;
48423;SDS011;34232;42.502;26.014;2022-12-31T17:15:23;43.93;;;21.53;;
48423;SDS011;34232;42.502;26.014;2022-12-31T17:18:04;66.30;;;28.23;;
48423;SDS011;34232;42.502;26.014;2022-12-31T17:20:31;45.88;;;21.75;;
48423;SDS011;34232;42.502;26.014;2022-12-31T17:22:59;45.30;;;21.20;;
48423;SDS011;34232;42.502;26.014;2022-12-31T17:25:32;45.30;;;20.53;;
48423;SDS011;34232;42.502;26.014;2022-12-31T17:35:41;53.97;;;24.27;;
48423;SDS011;34232;42.502;26.014;2022-12-31T17:40:46;49.13;;;25.63;;
48423;SDS011;34232;42.502;26.014;2022-12-31T17:43:19;39.23;;;21.70;;
48423;SDS011;34232;42.502;26.014;2022-12-31T17:45:47;45.13;;;22.40;;
48423;SDS011;34232;42.502;26.014;2022-12-31T17:48:16;43.53;;;21.80;;
48423;SDS011;34232;42.502;26.014;2022-12-31T17:50:47;77.50;;;38.03;;
48423;SDS011;34232;42.502;26.014;2022-12-31T17:53:14;58.70;;;28.27;;
48423;SDS011;34232;42.502;26.014;2022-12-31T17:55:40;70.90;;;35.83;;
48423;SDS011;34232;42.502;26.014;2022-12-31T17:58:07;73.90;;;35.27;;
48423;SDS011;34232;42.502;26.014;2022-12-31T18:00:42;103.43;;;48.07;;
48423;SDS011;34232;42.502;26.014;2022-12-31T18:03:08;109.23;;;54.37;;
48423;SDS011;34232;42.502;26.014;2022-12-31T18:05:33;114.90;;;58.93;;
48423;SDS011;34232;42.502;26.014;2022-12-31T18:07:59;128.43;;;63.75;;
48423;SDS011;34232;42.502;26.014;2022-12-31T18:10:24;124.60;;;67.80;;
48423;SDS011;34232;42.502;26.014;2022-12-31T18:12:54;117.13;;;59.33;;
48423;SDS011;34232;42.502;26.014;2022-12-31T18:15:22;77.47;;;38.50;;
48423;SDS011;34232;42.502;26.014;2022-12-31T18:17:48;89.23;;;39.93;;
48423;SDS011;34232;42.502;26.014;2022-12-31T18:20:14;90.67;;;45.20;;
48423;SDS011;34232;42.502;26.014;2022-12-31T18:22:40;101.33;;;46.80;;
48423;SDS011;34232;42.502;26.014;2022-12-31T18:25:09;78.13;;;41.73;;
48423;SDS011;34232;42.502;26.014;2022-12-31T18:27:37;84.33;;;44.03;;
48423;SDS011;34232;42.502;26.014;2022-12-31T18:30:06;87.10;;;46.57;;
48423;SDS011;34232;42.502;26.014;2022-12-31T18:32:33;95.37;;;46.90;;
48423;SDS011;34232;42.502;26.014;2022-12-31T18:35:00;99.13;;;53.95;;
48423;SDS011;34232;42.502;26.014;2022-12-31T18:37:27;110.22;;;53.15;;
48423;SDS011;34232;42.502;26.014;2022-12-31T18:39:53;114.60;;;54.17;;
48423;SDS011;34232;42.502;26.014;2022-12-31T18:42:19;128.30;;;63.37;;
48423;SDS011;34232;42.502;26.014;2022-12-31T18:44:47;110.30;;;55.63;;
48423;SDS011;34232;42.502;26.014;2022-12-31T18:47:17;114.53;;;60.73;;
48423;SDS011;34232;42.502;26.014;2022-12-31T18:49:44;120.27;;;65.37;;
48423;SDS011;34232;42.502;26.014;2022-12-31T18:52:15;121.87;;;61.50;;
48423;SDS011;34232;42.502;26.014;2022-12-31T18:54:43;125.33;;;66.10;;
48423;SDS011;34232;42.502;26.014;2022-12-31T18:57:12;123.87;;;65.50;;
48423;SDS011;34232;42.502;26.014;2022-12-31T18:59:39;119.97;;;64.57;;
48423;SDS011;34232;42.502;26.014;2022-12-31T19:02:16;119.63;;;63.00;;
48423;SDS011;34232;42.502;26.014;2022-12-31T19:04:43;123.93;;;59.57;;
48423;SDS011;34232;42.502;26.014;2022-12-31T19:07:09;116.80;;;63.07;;
48423;SDS011;34232;42.502;26.014;2022-12-31T19:09:34;137.10;;;67.77;;
48423;SDS011;34232;42.502;26.014;2022-12-31T19:12:00;121.70;;;67.57;;
48423;SDS011;34232;42.502;26.014;2022-12-31T19:14:25;142.23;;;70.03;;
48423;SDS011;34232;42.502;26.014;2022-12-31T19:16:51;131.40;;;63.23;;
48423;SDS011;34232;42.502;26.014;2022-12-31T19:19:18;141.33;;;73.43;;
48423;SDS011;34232;42.502;26.014;2022-12-31T19:21:44;143.15;;;74.70;;
48423;SDS011;34232;42.502;26.014;2022-12-31T19:24:13;140.67;;;66.90;;
48423;SDS011;34232;42.502;26.014;2022-12-31T19:26:42;124.87;;;59.87;;
48423;SDS011;34232;42.502;26.014;2022-12-31T19:29:29;163.77;;;85.37;;
48423;SDS011;34232;42.502;26.014;2022-12-31T19:31:53;159.67;;;85.30;;
48423;SDS011;34232;42.502;26.014;2022-12-31T19:34:19;135.33;;;69.13;;
48423;SDS011;34232;42.502;26.014;2022-12-31T19:36:44;134.63;;;69.37;;
48423;SDS011;34232;42.502;26.014;2022-12-31T19:39:14;137.87;;;70.40;;
48423;SDS011;34232;42.502;26.014;2022-12-31T19:41:41;108.53;;;56.17;;